»·PEaware :: N2070X KBFI-KGEG

N2070X :: KBFI-KGEG

FLIGHT INFORMATION

Flight Status: Arrived
Operator: Privately registered:
United States
More flights under this callsign
Pilot: Roger K. (8372)
Aircraft: Unknown
(CE T)
More flights by this aircraft type
Origin: KBFI Boeing Field/King Co Intl
United States
Destination: KGEG Spokane Intl
United States
More flights between these airports :: More routes between these airports
Route: +NRVNA1 NRVNA NORMY V120 EPH EPH ZOOMR1
File this flight plan on PilotEdge
Remarks: +CW / ILS RWY 21 VECTORS TO FINAL
Altitude:
(Current/Filed)
11,000ft
Speed:
(Current/Filed)
120kts
Departed: 17-Feb-19 03:20 PM
Arrived: 17-Feb-19 05:03 PM
Distance/Time
Traveled:
193nm/1:43
Distance/Time
To Go:
Arrived

Flight Plot

Page will automatically refresh every two minutes.

Flight plan parsing failed; only flown route is shown


Map Options




Map Legend


Flown Route
Filed Route
Departure Airport
Arrival Airport
Navaid (VOR, NDB)
Fix

Horizontal Profiles

Position Reports

Time Latitude Longitude Heading Altitude Ground
Speed
17-Feb-19 15:00 47.527803 -122.297167 291 22ft 0kts
17-Feb-19 15:01 47.527803 -122.297167 291 22ft 0kts
17-Feb-19 15:02 47.527803 -122.297167 291 22ft 0kts
17-Feb-19 15:03 47.527803 -122.297167 291 22ft 0kts
17-Feb-19 15:04 47.527803 -122.297167 291 22ft 0kts
17-Feb-19 15:05 47.527803 -122.297167 291 22ft 0kts
17-Feb-19 15:06 47.527803 -122.297167 291 22ft 0kts
17-Feb-19 15:07 47.527803 -122.297167 291 22ft 0kts
17-Feb-19 15:08 47.527803 -122.297167 291 22ft 0kts
17-Feb-19 15:09 47.527803 -122.297167 291 22ft 0kts
17-Feb-19 15:10 47.527803 -122.297167 291 22ft 0kts
17-Feb-19 15:11 47.527803 -122.297167 291 22ft 0kts
17-Feb-19 15:12 47.527986 -122.297576 311 22ft 3kts
17-Feb-19 15:13 47.529430 -122.298978 327 22ft 11kts
17-Feb-19 15:14 47.533453 -122.302370 331 22ft 20kts
17-Feb-19 15:15 47.538835 -122.307242 332 22ft 19kts
17-Feb-19 15:16 47.540917 -122.309194 320 22ft 7kts
17-Feb-19 15:17 47.540992 -122.309838 239 22ft 0kts
17-Feb-19 15:18 47.540046 -122.310828 161 22ft 12kts
17-Feb-19 15:19 47.523094 -122.296754 154 484ft 99kts
17-Feb-19 15:20 47.498017 -122.273272 149 1353ft 117kts
17-Feb-19 15:21 47.476316 -122.246803 143 2079ft 123kts
17-Feb-19 15:22 47.443929 -122.228258 153 2703ft 128kts
17-Feb-19 15:23 47.417749 -122.207464 150 3358ft 104kts
17-Feb-19 15:24 47.393015 -122.186944 150 4328ft 106kts
17-Feb-19 15:25 47.373592 -122.163646 92 5212ft 104kts
17-Feb-19 15:26 47.377632 -122.127545 78 6119ft 84kts
17-Feb-19 15:27 47.381599 -122.096309 78 6874ft 85kts
17-Feb-19 15:28 47.386215 -122.060609 78 7558ft 102kts
17-Feb-19 15:29 47.391456 -122.020092 78 8307ft 103kts
17-Feb-19 15:30 47.396194 -121.983283 78 9203ft 87kts
17-Feb-19 15:31 47.400445 -121.950127 78 9927ft 85kts
17-Feb-19 15:32 47.404952 -121.915052 78 10418ft 102kts
17-Feb-19 15:33 47.409779 -121.877403 79 10866ft 111kts
17-Feb-19 15:34 47.414958 -121.836874 79 11038ft 120kts
17-Feb-19 15:35 47.420761 -121.791282 79 11031ft 136kts
17-Feb-19 15:36 47.425418 -121.740114 73 11028ft 146kts
17-Feb-19 15:37 47.427381 -121.686439 85 11027ft 152kts
17-Feb-19 15:38 47.426654 -121.631029 85 11027ft 153kts
17-Feb-19 15:39 47.425921 -121.575695 85 11027ft 154kts
17-Feb-19 15:40 47.425188 -121.522204 85 11027ft 154kts
17-Feb-19 15:41 47.424396 -121.466315 85 11028ft 154kts
17-Feb-19 15:42 47.423577 -121.410796 85 11028ft 154kts
17-Feb-19 15:43 47.422735 -121.355446 85 11028ft 154kts
17-Feb-19 15:44 47.421868 -121.300061 85 11028ft 154kts
17-Feb-19 15:45 47.420972 -121.244633 85 11028ft 154kts
17-Feb-19 15:46 47.420051 -121.189294 85 11028ft 154kts
17-Feb-19 15:47 47.419108 -121.134117 85 11029ft 154kts
17-Feb-19 15:48 47.418138 -121.077804 85 11029ft 157kts
17-Feb-19 15:49 47.417116 -121.019477 85 11029ft 159kts
17-Feb-19 15:50 47.416022 -120.960167 85 11029ft 159kts
17-Feb-19 15:51 47.414930 -120.903000 85 11029ft 159kts
17-Feb-19 15:52 47.413838 -120.846491 86 11027ft 159kts
17-Feb-19 15:53 47.412710 -120.790355 86 11027ft 159kts
17-Feb-19 15:54 47.411532 -120.733269 86 11027ft 159kts
17-Feb-19 15:55 47.410323 -120.675897 86 11027ft 159kts
17-Feb-19 15:56 47.409037 -120.619179 86 11028ft 159kts
17-Feb-19 15:57 47.407657 -120.563300 85 11027ft 158kts
17-Feb-19 15:58 47.406350 -120.506265 85 11027ft 158kts
17-Feb-19 15:59 47.405079 -120.451165 85 11028ft 158kts
17-Feb-19 16:00 47.403759 -120.395149 85 11028ft 158kts
17-Feb-19 16:01 47.402411 -120.339055 85 11028ft 158kts
17-Feb-19 16:02 47.401042 -120.283151 85 11019ft 159kts
17-Feb-19 16:04 47.399624 -120.227461 85 11018ft 154kts
17-Feb-19 16:05 47.398195 -120.173140 85 11019ft 153kts
17-Feb-19 16:06 47.396780 -120.119029 85 11019ft 153kts
17-Feb-19 16:07 47.395346 -120.064820 85 11019ft 153kts
17-Feb-19 16:08 47.393870 -120.009973 85 11020ft 153kts
17-Feb-19 16:09 47.392363 -119.954986 85 11020ft 153kts
17-Feb-19 16:10 47.390844 -119.900426 85 11020ft 153kts
17-Feb-19 16:11 47.389318 -119.846092 86 11017ft 152kts
17-Feb-19 16:12 47.387755 -119.791407 86 10976ft 155kts
17-Feb-19 16:13 47.386124 -119.736187 86 10967ft 153kts
17-Feb-19 16:14 47.384487 -119.681713 86 10968ft 152kts
17-Feb-19 16:15 47.382837 -119.627331 86 10968ft 152kts
17-Feb-19 16:16 47.381156 -119.572622 86 10968ft 152kts
17-Feb-19 16:17 47.379484 -119.517694 86 10968ft 153kts
17-Feb-19 16:18 47.377892 -119.462260 86 10969ft 155kts
17-Feb-19 16:19 47.377168 -119.406507 80 10969ft 154kts
17-Feb-19 16:20 47.379527 -119.349738 79 10969ft 153kts
17-Feb-19 16:21 47.382190 -119.292262 79 10969ft 153kts
17-Feb-19 16:22 47.384841 -119.235094 79 10969ft 154kts
17-Feb-19 16:22 47.387027 -119.187558 79 10969ft 154kts
17-Feb-19 16:23 47.389604 -119.130926 79 10969ft 154kts
17-Feb-19 16:25 47.392551 -119.065386 79 10970ft 154kts
17-Feb-19 16:26 47.395011 -119.010047 79 10970ft 154kts
17-Feb-19 16:26 47.397045 -118.963844 79 10970ft 154kts
17-Feb-19 16:27 47.399470 -118.908157 79 10970ft 154kts
17-Feb-19 16:28 47.401918 -118.851668 80 10967ft 153kts
17-Feb-19 16:29 47.404383 -118.793722 80 10967ft 153kts
17-Feb-19 16:30 47.406812 -118.735970 80 10968ft 153kts
17-Feb-19 16:31 47.409219 -118.678045 80 10968ft 153kts
17-Feb-19 16:32 47.411582 -118.620479 80 10968ft 154kts
17-Feb-19 16:33 47.413924 -118.562820 80 10968ft 154kts
17-Feb-19 16:34 47.415975 -118.508068 79 10966ft 139kts
17-Feb-19 16:35 47.417873 -118.456768 79 10968ft 134kts
17-Feb-19 16:36 47.419752 -118.407215 79 10968ft 132kts
17-Feb-19 16:37 47.420372 -118.357284 84 10820ft 137kts
17-Feb-19 16:38 47.419316 -118.305841 84 10333ft 129kts
17-Feb-19 16:39 47.417879 -118.255312 86 9774ft 129kts
17-Feb-19 16:40 47.408079 -118.205063 84 9088ft 129kts
17-Feb-19 16:41 47.406355 -118.152438 84 8378ft 127kts
17-Feb-19 16:42 47.404602 -118.100148 84 7672ft 127kts
17-Feb-19 16:43 47.402911 -118.049678 84 6979ft 125kts
17-Feb-19 16:44 47.408071 -118.004295 65 6302ft 116kts
17-Feb-19 16:45 47.416762 -117.961551 65 5638ft 116kts
17-Feb-19 16:46 47.425164 -117.921352 65 5014ft 114kts
17-Feb-19 16:47 47.429211 -117.883943 90 4993ft 100kts
17-Feb-19 16:48 47.424980 -117.849352 90 4995ft 94kts
17-Feb-19 16:49 47.428910 -117.820015 41 4997ft 82kts
17-Feb-19 16:50 47.443093 -117.798532 39 4996ft 83kts
17-Feb-19 16:51 47.458308 -117.775935 39 4998ft 92kts
17-Feb-19 16:52 47.474441 -117.751905 40 4996ft 96kts
17-Feb-19 16:53 47.490802 -117.727466 40 4995ft 97kts
17-Feb-19 16:54 47.506740 -117.703564 40 4995ft 93kts
17-Feb-19 16:55 47.522778 -117.679582 40 4857ft 103kts
17-Feb-19 16:56 47.542173 -117.650507 47 4300ft 119kts
17-Feb-19 16:57 47.557836 -117.633652 62 4038ft 82kts
17-Feb-19 16:58 47.569960 -117.613830 22 3681ft 58kts
17-Feb-19 16:59 47.580672 -117.593259 41 3301ft 64kts
17-Feb-19 17:00 47.593288 -117.575762 38 2856ft 61kts
17-Feb-19 17:01 47.604505 -117.558992 40 2619ft 58kts
17-Feb-19 17:02 47.614096 -117.544018 44 2377ft 14kts
17-Feb-19 17:03 47.617508 -117.538908 42 2377ft 7kts
17-Feb-19 17:04 47.618075 -117.536731 95 2377ft 11kts
17-Feb-19 17:05 47.617944 -117.532367 89 2377ft 10kts
17-Feb-19 17:06 47.617954 -117.529858 84 2377ft 4kts
17-Feb-19 17:07 47.619315 -117.529308 1 2377ft 11kts
17-Feb-19 17:08 47.620503 -117.528511 90 2377ft 2kts
17-Feb-19 17:09 47.620498 -117.528370 92 2377ft 0kts
17-Feb-19 17:10 47.620498 -117.528370 92 2377ft 0kts
17-Feb-19 17:11 47.620498 -117.528370 92 2377ft 0kts
17-Feb-19 17:12 47.620498 -117.528370 92 2377ft 0kts
17-Feb-19 17:13 47.620498 -117.528370 92 2377ft 0kts
17-Feb-19 17:14 47.620498 -117.528370 92 2377ft 0kts

Navigation Log

Ident Type
Flight plan parsing failed, navigation log unavailable